sensor_id;sensor_type;location;lat;lon;timestamp;pressure;altitude;pressure_sealevel;temperature;humidity
63097;BME280;49185;42.320;23.198;2023-04-23T00:01:27;94814.69;;;4.62;88.12
63097;BME280;49185;42.320;23.198;2023-04-23T00:03:56;94809.06;;;4.52;87.90
63097;BME280;49185;42.320;23.198;2023-04-23T00:06:22;94815.22;;;4.26;88.75
63097;BME280;49185;42.320;23.198;2023-04-23T00:08:54;94819.09;;;4.16;89.26
63097;BME280;49185;42.320;23.198;2023-04-23T00:11:21;94815.41;;;4.24;90.57
63097;BME280;49185;42.320;23.198;2023-04-23T00:13:47;94817.69;;;4.01;91.12
63097;BME280;49185;42.320;23.198;2023-04-23T00:16:12;94814.66;;;3.97;91.12
63097;BME280;49185;42.320;23.198;2023-04-23T00:18:38;94820.47;;;4.19;91.61
63097;BME280;49185;42.320;23.198;2023-04-23T00:21:03;94814.47;;;3.98;90.51
63097;BME280;49185;42.320;23.198;2023-04-23T00:23:29;94819.53;;;3.73;92.47
63097;BME280;49185;42.320;23.198;2023-04-23T00:25:54;94826.63;;;3.73;91.85
63097;BME280;49185;42.320;23.198;2023-04-23T00:28:20;94823.78;;;3.28;92.66
63097;BME280;49185;42.320;23.198;2023-04-23T00:30:45;94824.34;;;2.96;95.71
63097;BME280;49185;42.320;23.198;2023-04-23T00:33:11;94833.81;;;2.91;97.08
63097;BME280;49185;42.320;23.198;2023-04-23T00:35:36;94830.59;;;2.89;96.92
63097;BME280;49185;42.320;23.198;2023-04-23T00:38:01;94828.16;;;2.94;97.08
63097;BME280;49185;42.320;23.198;2023-04-23T00:40:27;94835.00;;;2.75;97.03
63097;BME280;49185;42.320;23.198;2023-04-23T00:42:53;94841.63;;;2.64;96.92
63097;BME280;49185;42.320;23.198;2023-04-23T00:45:20;94832.06;;;3.18;96.84
63097;BME280;49185;42.320;23.198;2023-04-23T00:47:45;94828.03;;;3.89;92.88
63097;BME280;49185;42.320;23.198;2023-04-23T00:50:11;94822.16;;;3.80;91.84
63097;BME280;49185;42.320;23.198;2023-04-23T00:52:36;94828.47;;;3.46;94.17
63097;BME280;49185;42.320;23.198;2023-04-23T00:55:02;94833.25;;;3.22;94.90
63097;BME280;49185;42.320;23.198;2023-04-23T00:57:27;94834.44;;;2.99;95.62
63097;BME280;49185;42.320;23.198;2023-04-23T00:59:53;94840.97;;;3.30;94.64
63097;BME280;49185;42.320;23.198;2023-04-23T01:02:19;94833.22;;;3.02;95.18
63097;BME280;49185;42.320;23.198;2023-04-23T01:04:45;94838.34;;;3.37;94.36
63097;BME280;49185;42.320;23.198;2023-04-23T01:07:12;94829.22;;;3.13;95.09
63097;BME280;49185;42.320;23.198;2023-04-23T01:09:38;94831.81;;;2.93;96.06
63097;BME280;49185;42.320;23.198;2023-04-23T01:12:05;94833.81;;;2.91;96.70
63097;BME280;49185;42.320;23.198;2023-04-23T01:14:30;94828.16;;;2.87;96.63
63097;BME280;49185;42.320;23.198;2023-04-23T01:16:56;94825.31;;;2.95;96.85
63097;BME280;49185;42.320;23.198;2023-04-23T01:19:21;94824.38;;;3.23;95.08
63097;BME280;49185;42.320;23.198;2023-04-23T01:21:48;94822.91;;;3.00;96.10
63097;BME280;49185;42.320;23.198;2023-04-23T01:24:14;94820.75;;;3.17;96.04
63097;BME280;49185;42.320;23.198;2023-04-23T01:26:39;94820.69;;;2.97;96.28
63097;BME280;49185;42.320;23.198;2023-04-23T01:29:05;94824.78;;;3.47;94.46
63097;BME280;49185;42.320;23.198;2023-04-23T01:31:32;94824.56;;;3.21;94.30
63097;BME280;49185;42.320;23.198;2023-04-23T01:33:57;94818.50;;;3.14;94.89
63097;BME280;49185;42.320;23.198;2023-04-23T01:36:24;94817.63;;;2.94;94.80
63097;BME280;49185;42.320;23.198;2023-04-23T01:38:50;94819.66;;;2.92;95.29
63097;BME280;49185;42.320;23.198;2023-04-23T01:41:16;94824.47;;;2.75;95.83
63097;BME280;49185;42.320;23.198;2023-04-23T01:43:43;94821.63;;;2.70;96.66
63097;BME280;49185;42.320;23.198;2023-04-23T01:46:08;94825.84;;;2.71;97.24
63097;BME280;49185;42.320;23.198;2023-04-23T01:48:34;94825.31;;;2.82;95.78
63097;BME280;49185;42.320;23.198;2023-04-23T01:50:59;94821.22;;;2.66;96.32
63097;BME280;49185;42.320;23.198;2023-04-23T01:53:25;94824.56;;;2.53;97.07
63097;BME280;49185;42.320;23.198;2023-04-23T01:55:51;94827.00;;;2.55;97.41
63097;BME280;49185;42.320;23.198;2023-04-23T01:58:16;94833.88;;;2.49;97.56
63097;BME280;49185;42.320;23.198;2023-04-23T02:00:42;94821.56;;;2.56;97.27
63097;BME280;49185;42.320;23.198;2023-04-23T02:03:07;94826.81;;;2.56;97.10
63097;BME280;49185;42.320;23.198;2023-04-23T02:05:34;94834.47;;;2.44;97.88
63097;BME280;49185;42.320;23.198;2023-04-23T02:08:00;94834.31;;;2.59;96.82
63097;BME280;49185;42.320;23.198;2023-04-23T02:10:26;94828.56;;;2.36;96.68
63097;BME280;49185;42.320;23.198;2023-04-23T02:12:51;94838.19;;;2.22;97.48
63097;BME280;49185;42.320;23.198;2023-04-23T02:15:16;94818.81;;;2.78;95.51
63097;BME280;49185;42.320;23.198;2023-04-23T02:17:42;94832.19;;;2.90;92.70
63097;BME280;49185;42.320;23.198;2023-04-23T02:20:09;94832.38;;;2.88;92.69
63097;BME280;49185;42.320;23.198;2023-04-23T02:22:39;94834.50;;;2.58;93.22
63097;BME280;49185;42.320;23.198;2023-04-23T02:25:05;94836.44;;;2.36;95.01
63097;BME280;49185;42.320;23.198;2023-04-23T02:27:32;94838.44;;;2.34;94.71
63097;BME280;49185;42.320;23.198;2023-04-23T02:29:57;94846.84;;;1.87;96.13
63097;BME280;49185;42.320;23.198;2023-04-23T02:32:23;94835.47;;;1.74;97.42
63097;BME280;49185;42.320;23.198;2023-04-23T02:34:49;94845.03;;;2.23;97.88
63097;BME280;49185;42.320;23.198;2023-04-23T02:37:14;94840.41;;;2.66;95.79
63097;BME280;49185;42.320;23.198;2023-04-23T02:39:39;94838.72;;;3.07;92.06
63097;BME280;49185;42.320;23.198;2023-04-23T02:42:05;94840.72;;;2.43;94.05
63097;BME280;49185;42.320;23.198;2023-04-23T02:44:31;94838.22;;;2.77;93.94
63097;BME280;49185;42.320;23.198;2023-04-23T02:46:56;94842.72;;;2.41;94.53
63097;BME280;49185;42.320;23.198;2023-04-23T02:49:22;94837.66;;;2.05;96.12
63097;BME280;49185;42.320;23.198;2023-04-23T02:51:47;94842.66;;;1.93;97.86
63097;BME280;49185;42.320;23.198;2023-04-23T02:54:13;94847.63;;;1.81;98.43
63097;BME280;49185;42.320;23.198;2023-04-23T02:56:38;94849.22;;;1.82;99.09
63097;BME280;49185;42.320;23.198;2023-04-23T02:59:04;94848.84;;;1.85;99.50
63097;BME280;49185;42.320;23.198;2023-04-23T03:01:30;94848.09;;;1.92;100.00
63097;BME280;49185;42.320;23.198;2023-04-23T03:03:56;94852.50;;;1.91;100.00
63097;BME280;49185;42.320;23.198;2023-04-23T03:06:22;94850.47;;;1.86;100.00
63097;BME280;49185;42.320;23.198;2023-04-23T03:08:47;94851.38;;;1.72;100.00
63097;BME280;49185;42.320;23.198;2023-04-23T03:11:13;94850.53;;;1.65;100.00
63097;BME280;49185;42.320;23.198;2023-04-23T03:13:38;94856.56;;;1.65;100.00
63097;BME280;49185;42.320;23.198;2023-04-23T03:16:04;94857.50;;;1.79;100.00
63097;BME280;49185;42.320;23.198;2023-04-23T03:18:29;94852.72;;;1.89;100.00
63097;BME280;49185;42.320;23.198;2023-04-23T03:20:55;94848.94;;;1.99;100.00
63097;BME280;49185;42.320;23.198;2023-04-23T03:23:20;94850.75;;;1.98;100.00
63097;BME280;49185;42.320;23.198;2023-04-23T03:25:46;94854.44;;;2.45;100.00
63097;BME280;49185;42.320;23.198;2023-04-23T03:28:11;94853.66;;;3.13;93.85
63097;BME280;49185;42.320;23.198;2023-04-23T03:30:36;94857.53;;;3.31;91.10
63097;BME280;49185;42.320;23.198;2023-04-23T03:33:02;94856.72;;;3.10;89.60
63097;BME280;49185;42.320;23.198;2023-04-23T03:35:27;94863.56;;;2.98;89.61
63097;BME280;49185;42.320;23.198;2023-04-23T03:37:53;94860.72;;;2.51;91.60
63097;BME280;49185;42.320;23.198;2023-04-23T03:40:19;94859.34;;;2.55;93.79
63097;BME280;49185;42.320;23.198;2023-04-23T03:42:45;94861.13;;;2.96;91.01
63097;BME280;49185;42.320;23.198;2023-04-23T03:45:10;94867.38;;;2.95;92.33
63097;BME280;49185;42.320;23.198;2023-04-23T03:47:36;94877.34;;;3.07;91.56
63097;BME280;49185;42.320;23.198;2023-04-23T03:50:01;94865.25;;;3.32;91.54
63097;BME280;49185;42.320;23.198;2023-04-23T03:52:27;94880.78;;;3.20;91.77
63097;BME280;49185;42.320;23.198;2023-04-23T03:54:52;94873.25;;;3.04;92.56
63097;BME280;49185;42.320;23.198;2023-04-23T03:57:19;94872.88;;;3.07;93.62
63097;BME280;49185;42.320;23.198;2023-04-23T03:59:45;94869.53;;;3.53;94.09
63097;BME280;49185;42.320;23.198;2023-04-23T04:02:10;94874.19;;;3.85;90.95
63097;BME280;49185;42.320;23.198;2023-04-23T04:04:35;94871.31;;;4.33;89.09
63097;BME280;49185;42.320;23.198;2023-04-23T04:07:01;94870.31;;;4.21;89.74
63097;BME280;49185;42.320;23.198;2023-04-23T04:09:27;94865.38;;;4.44;88.61
63097;BME280;49185;42.320;23.198;2023-04-23T04:11:53;94863.41;;;4.91;86.53
63097;BME280;49185;42.320;23.198;2023-04-23T04:14:19;94868.69;;;4.91;86.55
63097;BME280;49185;42.320;23.198;2023-04-23T04:16:45;94873.56;;;4.94;86.43
63097;BME280;49185;42.320;23.198;2023-04-23T04:19:10;94877.34;;;4.53;87.17
63097;BME280;49185;42.320;23.198;2023-04-23T04:21:36;94875.38;;;4.15;89.42
63097;BME280;49185;42.320;23.198;2023-04-23T04:24:01;94874.97;;;4.05;89.96
63097;BME280;49185;42.320;23.198;2023-04-23T04:26:27;94874.81;;;3.87;89.86
63097;BME280;49185;42.320;23.198;2023-04-23T04:28:53;94879.44;;;4.05;90.24
63097;BME280;49185;42.320;23.198;2023-04-23T04:31:18;94872.16;;;3.87;90.71
63097;BME280;49185;42.320;23.198;2023-04-23T04:33:43;94878.84;;;3.89;91.57
63097;BME280;49185;42.320;23.198;2023-04-23T04:36:09;94878.81;;;4.36;89.32
63097;BME280;49185;42.320;23.198;2023-04-23T04:38:35;94882.72;;;4.85;87.73
63097;BME280;49185;42.320;23.198;2023-04-23T04:41:00;94883.50;;;4.92;87.37
63097;BME280;49185;42.320;23.198;2023-04-23T04:43:25;94881.56;;;5.13;88.11
63097;BME280;49185;42.320;23.198;2023-04-23T04:45:51;94890.38;;;5.39;86.92
63097;BME280;49185;42.320;23.198;2023-04-23T04:48:16;94889.09;;;5.48;87.19
63097;BME280;49185;42.320;23.198;2023-04-23T04:50:42;94898.97;;;6.60;82.47
63097;BME280;49185;42.320;23.198;2023-04-23T04:53:07;94889.00;;;7.29;78.02
63097;BME280;49185;42.320;23.198;2023-04-23T04:55:33;94894.09;;;7.61;76.87
63097;BME280;49185;42.320;23.198;2023-04-23T04:57:58;94897.53;;;8.15;75.46
63097;BME280;49185;42.320;23.198;2023-04-23T05:00:26;94900.41;;;8.14;71.89
63097;BME280;49185;42.320;23.198;2023-04-23T05:02:53;94906.63;;;7.96;73.60
63097;BME280;49185;42.320;23.198;2023-04-23T05:05:20;94897.59;;;10.01;66.32
63097;BME280;49185;42.320;23.198;2023-04-23T05:07:45;94895.13;;;11.73;61.86
63097;BME280;49185;42.320;23.198;2023-04-23T05:10:12;94904.16;;;10.83;62.77
63097;BME280;49185;42.320;23.198;2023-04-23T05:12:38;94901.72;;;10.26;65.59
63097;BME280;49185;42.320;23.198;2023-04-23T05:15:03;94908.97;;;9.68;67.20
63097;BME280;49185;42.320;23.198;2023-04-23T05:17:29;94900.91;;;10.59;64.17
63097;BME280;49185;42.320;23.198;2023-04-23T05:19:54;94903.53;;;11.65;62.33
63097;BME280;49185;42.320;23.198;2023-04-23T05:22:20;94909.13;;;12.45;58.68
63097;BME280;49185;42.320;23.198;2023-04-23T05:24:45;94903.13;;;12.00;59.15
63097;BME280;49185;42.320;23.198;2023-04-23T05:27:11;94906.09;;;12.04;59.68
63097;BME280;49185;42.320;23.198;2023-04-23T05:29:36;94909.59;;;11.82;59.78
63097;BME280;49185;42.320;23.198;2023-04-23T05:32:02;94918.31;;;11.06;62.50
63097;BME280;49185;42.320;23.198;2023-04-23T05:34:27;94912.56;;;11.58;61.97
63097;BME280;49185;42.320;23.198;2023-04-23T05:36:53;94916.03;;;12.83;57.68
63097;BME280;49185;42.320;23.198;2023-04-23T05:39:18;94929.50;;;11.96;59.80
63097;BME280;49185;42.320;23.198;2023-04-23T05:41:43;94921.53;;;15.26;50.78
63097;BME280;49185;42.320;23.198;2023-04-23T05:44:09;94918.72;;;14.66;50.23
63097;BME280;49185;42.320;23.198;2023-04-23T05:46:34;94918.38;;;12.75;57.48
63097;BME280;49185;42.320;23.198;2023-04-23T05:49:00;94906.09;;;18.02;43.92
63097;BME280;49185;42.320;23.198;2023-04-23T05:51:25;94907.00;;;19.98;39.06
63097;BME280;49185;42.320;23.198;2023-04-23T05:53:51;94916.22;;;19.69;38.51
63097;BME280;49185;42.320;23.198;2023-04-23T05:56:16;94916.94;;;19.75;38.13
63097;BME280;49185;42.320;23.198;2023-04-23T05:58:41;94918.25;;;20.51;36.62
63097;BME280;49185;42.320;23.198;2023-04-23T06:01:07;94909.72;;;20.80;36.13
63097;BME280;49185;42.320;23.198;2023-04-23T06:03:33;94923.75;;;18.84;39.53
63097;BME280;49185;42.320;23.198;2023-04-23T06:05:58;94922.13;;;19.85;38.46
63097;BME280;49185;42.320;23.198;2023-04-23T06:08:24;94914.78;;;19.03;39.26
63097;BME280;49185;42.320;23.198;2023-04-23T06:10:49;94916.59;;;16.83;44.65
63097;BME280;49185;42.320;23.198;2023-04-23T06:13:15;94919.06;;;15.45;49.37
63097;BME280;49185;42.320;23.198;2023-04-23T06:15:40;94912.34;;;17.78;44.56
63097;BME280;49185;42.320;23.198;2023-04-23T06:18:05;94915.94;;;16.96;43.71
63097;BME280;49185;42.320;23.198;2023-04-23T06:20:31;94916.31;;;17.14;44.34
63097;BME280;49185;42.320;23.198;2023-04-23T06:22:56;94914.00;;;19.02;40.92
63097;BME280;49185;42.320;23.198;2023-04-23T06:25:22;94907.03;;;21.11;35.56
63097;BME280;49185;42.320;23.198;2023-04-23T06:27:47;94900.28;;;23.02;32.58
63097;BME280;49185;42.320;23.198;2023-04-23T06:30:13;94910.91;;;22.43;32.66
63097;BME280;49185;42.320;23.198;2023-04-23T06:32:38;94916.19;;;19.97;36.63
63097;BME280;49185;42.320;23.198;2023-04-23T06:35:05;94907.97;;;20.84;37.12
63097;BME280;49185;42.320;23.198;2023-04-23T06:37:31;94902.28;;;21.48;35.08
63097;BME280;49185;42.320;23.198;2023-04-23T06:39:57;94905.00;;;21.48;34.33
63097;BME280;49185;42.320;23.198;2023-04-23T06:42:23;94896.66;;;22.02;34.57
63097;BME280;49185;42.320;23.198;2023-04-23T06:44:48;94907.22;;;19.60;39.53
63097;BME280;49185;42.320;23.198;2023-04-23T06:47:14;94913.81;;;19.40;40.38
63097;BME280;49185;42.320;23.198;2023-04-23T06:49:39;94906.34;;;21.37;35.13
63097;BME280;49185;42.320;23.198;2023-04-23T06:52:05;94901.94;;;22.07;33.23
63097;BME280;49185;42.320;23.198;2023-04-23T06:54:30;94898.13;;;22.26;32.79
63097;BME280;49185;42.320;23.198;2023-04-23T06:56:56;94899.66;;;21.92;33.96
63097;BME280;49185;42.320;23.198;2023-04-23T06:59:21;94902.13;;;22.37;34.54
63097;BME280;49185;42.320;23.198;2023-04-23T07:01:47;94893.94;;;21.36;36.35
63097;BME280;49185;42.320;23.198;2023-04-23T07:04:12;94901.81;;;19.32;38.71
63097;BME280;49185;42.320;23.198;2023-04-23T07:06:37;94906.91;;;19.20;40.30
63097;BME280;49185;42.320;23.198;2023-04-23T07:09:03;94898.09;;;21.91;35.51
63097;BME280;49185;42.320;23.198;2023-04-23T07:11:29;94891.34;;;23.02;32.85
63097;BME280;49185;42.320;23.198;2023-04-23T07:13:54;94903.31;;;20.17;37.81
63097;BME280;49185;42.320;23.198;2023-04-23T07:16:19;94895.84;;;22.89;33.13
63097;BME280;49185;42.320;23.198;2023-04-23T07:18:45;94902.44;;;20.44;37.77
63097;BME280;49185;42.320;23.198;2023-04-23T07:21:10;94901.38;;;20.08;37.73
63097;BME280;49185;42.320;23.198;2023-04-23T07:23:36;94888.56;;;22.54;34.00
63097;BME280;49185;42.320;23.198;2023-04-23T07:26:01;94888.03;;;22.79;33.87
63097;BME280;49185;42.320;23.198;2023-04-23T07:28:27;94890.97;;;23.98;30.56
63097;BME280;49185;42.320;23.198;2023-04-23T07:30:52;94895.16;;;23.18;32.46
63097;BME280;49185;42.320;23.198;2023-04-23T07:33:17;94892.06;;;21.14;36.47
63097;BME280;49185;42.320;23.198;2023-04-23T07:35:43;94894.78;;;22.72;35.36
63097;BME280;49185;42.320;23.198;2023-04-23T07:38:08;94890.69;;;23.61;31.78
63097;BME280;49185;42.320;23.198;2023-04-23T07:40:34;94891.25;;;22.02;34.10
63097;BME280;49185;42.320;23.198;2023-04-23T07:42:59;94889.81;;;19.80;39.14
63097;BME280;49185;42.320;23.198;2023-04-23T07:45:24;94894.16;;;18.79;40.91
63097;BME280;49185;42.320;23.198;2023-04-23T07:47:50;94890.84;;;20.43;38.66
63097;BME280;49185;42.320;23.198;2023-04-23T07:50:15;94886.41;;;21.64;35.88
63097;BME280;49185;42.320;23.198;2023-04-23T07:52:41;94891.94;;;21.19;35.86
63097;BME280;49185;42.320;23.198;2023-04-23T07:55:07;94890.56;;;21.79;33.78
63097;BME280;49185;42.320;23.198;2023-04-23T07:57:32;94886.41;;;23.04;30.54
63097;BME280;49185;42.320;23.198;2023-04-23T07:59:58;94886.47;;;22.69;31.39
63097;BME280;49185;42.320;23.198;2023-04-23T08:02:23;94883.91;;;22.81;32.27
63097;BME280;49185;42.320;23.198;2023-04-23T08:04:48;94888.88;;;20.80;34.08
63097;BME280;49185;42.320;23.198;2023-04-23T08:07:14;94887.06;;;20.67;36.15
63097;BME280;49185;42.320;23.198;2023-04-23T08:09:40;94878.75;;;22.97;31.23
63097;BME280;49185;42.320;23.198;2023-04-23T08:12:06;94883.59;;;20.53;35.74
63097;BME280;49185;42.320;23.198;2023-04-23T08:14:31;94882.94;;;19.46;37.86
63097;BME280;49185;42.320;23.198;2023-04-23T08:16:57;94872.91;;;21.99;34.57
63097;BME280;49185;42.320;23.198;2023-04-23T08:19:22;94870.53;;;22.67;31.93
63097;BME280;49185;42.320;23.198;2023-04-23T08:21:48;94877.22;;;22.09;32.06
63097;BME280;49185;42.320;23.198;2023-04-23T08:24:13;94868.97;;;22.49;31.71
63097;BME280;49185;42.320;23.198;2023-04-23T08:26:39;94867.66;;;22.72;31.33
63097;BME280;49185;42.320;23.198;2023-04-23T08:29:04;94877.53;;;22.16;33.65
63097;BME280;49185;42.320;23.198;2023-04-23T08:31:30;94864.31;;;22.06;34.20
63097;BME280;49185;42.320;23.198;2023-04-23T08:33:55;94863.91;;;21.15;34.03
63097;BME280;49185;42.320;23.198;2023-04-23T08:36:21;94859.22;;;22.39;34.12
63097;BME280;49185;42.320;23.198;2023-04-23T08:38:46;94852.47;;;21.67;34.15
63097;BME280;49185;42.320;23.198;2023-04-23T08:41:13;94850.13;;;21.34;38.06
63097;BME280;49185;42.320;23.198;2023-04-23T08:46:36;94852.03;;;22.61;33.94
63097;BME280;49185;42.320;23.198;2023-04-23T08:49:05;94847.88;;;23.19;30.31
63097;BME280;49185;42.320;23.198;2023-04-23T08:51:34;94847.72;;;22.16;32.22
63097;BME280;49185;42.320;23.198;2023-04-23T08:54:03;94837.69;;;22.16;33.79
63097;BME280;49185;42.320;23.198;2023-04-23T08:56:29;94840.22;;;21.95;33.05
63097;BME280;49185;42.320;23.198;2023-04-23T08:58:56;94839.44;;;21.95;33.55
63097;BME280;49185;42.320;23.198;2023-04-23T09:01:22;94836.44;;;22.49;30.80
63097;BME280;49185;42.320;23.198;2023-04-23T09:03:48;94844.31;;;20.33;33.50
63097;BME280;49185;42.320;23.198;2023-04-23T09:06:13;94841.88;;;21.39;33.87
63097;BME280;49185;42.320;23.198;2023-04-23T09:08:39;94831.16;;;22.17;34.25
63097;BME280;49185;42.320;23.198;2023-04-23T09:11:05;94827.47;;;22.48;33.25
63097;BME280;49185;42.320;23.198;2023-04-23T09:13:32;94829.06;;;22.06;34.45
63097;BME280;49185;42.320;23.198;2023-04-23T09:15:58;94837.38;;;22.35;33.49
63097;BME280;49185;42.320;23.198;2023-04-23T09:18:23;94837.28;;;19.36;34.73
63097;BME280;49185;42.320;23.198;2023-04-23T09:20:49;94829.19;;;20.77;34.22
63097;BME280;49185;42.320;23.198;2023-04-23T09:23:15;94826.72;;;20.35;33.72
63097;BME280;49185;42.320;23.198;2023-04-23T09:25:40;94819.84;;;21.89;29.35
63097;BME280;49185;42.320;23.198;2023-04-23T09:28:07;94812.63;;;21.67;31.30
63097;BME280;49185;42.320;23.198;2023-04-23T09:30:47;94813.66;;;22.88;28.17
63097;BME280;49185;42.320;23.198;2023-04-23T09:33:13;94813.81;;;22.92;28.76
63097;BME280;49185;42.320;23.198;2023-04-23T09:35:40;94810.09;;;21.62;31.73
63097;BME280;49185;42.320;23.198;2023-04-23T09:38:06;94806.28;;;21.63;29.54
63097;BME280;49185;42.320;23.198;2023-04-23T09:40:32;94803.81;;;21.44;28.43
63097;BME280;49185;42.320;23.198;2023-04-23T09:42:58;94798.44;;;20.41;29.59
63097;BME280;49185;42.320;23.198;2023-04-23T09:45:23;94798.91;;;19.89;29.81
63097;BME280;49185;42.320;23.198;2023-04-23T09:47:57;94802.69;;;20.11;29.91
63097;BME280;49185;42.320;23.198;2023-04-23T09:52:58;94781.00;;;20.47;30.83
63097;BME280;49185;42.320;23.198;2023-04-23T09:55:39;94776.66;;;22.28;28.77
63097;BME280;49185;42.320;23.198;2023-04-23T09:58:06;94779.13;;;21.37;31.41
63097;BME280;49185;42.320;23.198;2023-04-23T10:00:36;94776.38;;;21.11;28.79
63097;BME280;49185;42.320;23.198;2023-04-23T10:03:02;94780.34;;;19.97;28.72
63097;BME280;49185;42.320;23.198;2023-04-23T10:05:28;94772.41;;;20.77;29.61
63097;BME280;49185;42.320;23.198;2023-04-23T10:07:56;94769.63;;;22.27;26.66
63097;BME280;49185;42.320;23.198;2023-04-23T10:10:23;94763.50;;;23.33;26.63
63097;BME280;49185;42.320;23.198;2023-04-23T10:12:51;94760.03;;;23.54;26.22
63097;BME280;49185;42.320;23.198;2023-04-23T10:15:16;94764.28;;;22.65;26.66
63097;BME280;49185;42.320;23.198;2023-04-23T10:17:42;94762.00;;;21.76;29.32
63097;BME280;49185;42.320;23.198;2023-04-23T10:20:09;94755.31;;;20.05;29.83
63097;BME280;49185;42.320;23.198;2023-04-23T10:22:37;94745.53;;;21.38;26.81
63097;BME280;49185;42.320;23.198;2023-04-23T10:25:04;94743.19;;;21.63;26.09
63097;BME280;49185;42.320;23.198;2023-04-23T10:27:30;94743.78;;;21.33;27.88
63097;BME280;49185;42.320;23.198;2023-04-23T10:29:56;94741.06;;;23.24;23.42
63097;BME280;49185;42.320;23.198;2023-04-23T10:32:23;94735.13;;;22.53;23.88
63097;BME280;49185;42.320;23.198;2023-04-23T10:34:49;94723.19;;;22.84;22.38
63097;BME280;49185;42.320;23.198;2023-04-23T10:37:16;94716.59;;;24.08;22.66
63097;BME280;49185;42.320;23.198;2023-04-23T10:39:43;94713.16;;;25.39;22.44
63097;BME280;49185;42.320;23.198;2023-04-23T10:42:09;94717.34;;;23.33;23.43
63097;BME280;49185;42.320;23.198;2023-04-23T10:44:38;94712.13;;;21.34;24.49
63097;BME280;49185;42.320;23.198;2023-04-23T10:47:05;94717.81;;;21.23;25.29
63097;BME280;49185;42.320;23.198;2023-04-23T10:49:33;94709.78;;;24.02;24.16
63097;BME280;49185;42.320;23.198;2023-04-23T10:52:02;94696.72;;;24.74;22.03
63097;BME280;49185;42.320;23.198;2023-04-23T10:54:32;94690.78;;;24.02;22.83
63097;BME280;49185;42.320;23.198;2023-04-23T10:57:02;94694.34;;;24.27;23.23
63097;BME280;49185;42.320;23.198;2023-04-23T10:59:30;94690.91;;;24.63;22.47
63097;BME280;49185;42.320;23.198;2023-04-23T11:01:57;94695.75;;;23.37;23.95
63097;BME280;49185;42.320;23.198;2023-04-23T11:06:51;94695.81;;;22.21;22.42
63097;BME280;49185;42.320;23.198;2023-04-23T11:09:27;94684.31;;;23.01;21.39
63097;BME280;49185;42.320;23.198;2023-04-23T11:11:53;94681.78;;;23.89;20.78
63097;BME280;49185;42.320;23.198;2023-04-23T11:14:19;94681.94;;;24.51;20.16
63097;BME280;49185;42.320;23.198;2023-04-23T11:16:44;94683.59;;;22.06;19.87
63097;BME280;49185;42.320;23.198;2023-04-23T11:19:12;94684.03;;;22.17;22.02
63097;BME280;49185;42.320;23.198;2023-04-23T11:24:39;94683.91;;;23.41;19.75
63097;BME280;49185;42.320;23.198;2023-04-23T11:27:06;94684.97;;;22.30;20.85
63097;BME280;49185;42.320;23.198;2023-04-23T11:29:32;94681.22;;;23.41;21.98
63097;BME280;49185;42.320;23.198;2023-04-23T11:31:57;94681.09;;;22.40;21.52
63097;BME280;49185;42.320;23.198;2023-04-23T11:34:23;94685.97;;;21.99;22.42
63097;BME280;49185;42.320;23.198;2023-04-23T11:36:51;94682.78;;;21.88;22.57
63097;BME280;49185;42.320;23.198;2023-04-23T11:39:17;94681.84;;;21.40;23.55
63097;BME280;49185;42.320;23.198;2023-04-23T11:41:43;94686.31;;;21.28;23.65
63097;BME280;49185;42.320;23.198;2023-04-23T11:44:08;94679.59;;;21.95;25.85
63097;BME280;49185;42.320;23.198;2023-04-23T11:46:34;94665.28;;;23.73;23.87
63097;BME280;49185;42.320;23.198;2023-04-23T11:48:59;94674.28;;;23.86;23.96
63097;BME280;49185;42.320;23.198;2023-04-23T11:51:25;94668.56;;;22.65;25.88
63097;BME280;49185;42.320;23.198;2023-04-23T11:53:51;94668.22;;;23.47;25.39
63097;BME280;49185;42.320;23.198;2023-04-23T11:56:16;94659.63;;;23.45;24.28
63097;BME280;49185;42.320;23.198;2023-04-23T11:58:42;94661.56;;;24.11;23.54
63097;BME280;49185;42.320;23.198;2023-04-23T12:01:09;94666.22;;;22.54;26.49
63097;BME280;49185;42.320;23.198;2023-04-23T12:03:35;94666.53;;;21.97;26.78
63097;BME280;49185;42.320;23.198;2023-04-23T12:06:00;94656.50;;;22.06;26.66
63097;BME280;49185;42.320;23.198;2023-04-23T12:08:31;94658.59;;;21.83;27.25
63097;BME280;49185;42.320;23.198;2023-04-23T12:11:01;94652.44;;;22.21;26.67
63097;BME280;49185;42.320;23.198;2023-04-23T12:13:29;94658.69;;;22.13;26.27
63097;BME280;49185;42.320;23.198;2023-04-23T12:15:57;94662.09;;;21.40;26.82
63097;BME280;49185;42.320;23.198;2023-04-23T12:18:33;94658.00;;;22.25;25.90
63097;BME280;49185;42.320;23.198;2023-04-23T12:21:11;94650.22;;;22.91;23.64
63097;BME280;49185;42.320;23.198;2023-04-23T12:23:38;94645.69;;;22.45;23.56
63097;BME280;49185;42.320;23.198;2023-04-23T12:26:09;94637.06;;;21.95;25.08
63097;BME280;49185;42.320;23.198;2023-04-23T12:28:44;94628.78;;;21.83;24.35
63097;BME280;49185;42.320;23.198;2023-04-23T12:31:10;94632.06;;;21.50;24.43
63097;BME280;49185;42.320;23.198;2023-04-23T12:33:35;94631.41;;;21.62;23.48
63097;BME280;49185;42.320;23.198;2023-04-23T12:36:01;94621.19;;;21.24;27.65
63097;BME280;49185;42.320;23.198;2023-04-23T12:38:27;94612.56;;;20.70;27.95
63097;BME280;49185;42.320;23.198;2023-04-23T12:40:58;94621.00;;;20.28;28.77
63097;BME280;49185;42.320;23.198;2023-04-23T12:43:25;94629.78;;;20.82;28.40
63097;BME280;49185;42.320;23.198;2023-04-23T12:45:51;94616.88;;;21.32;26.56
63097;BME280;49185;42.320;23.198;2023-04-23T12:48:17;94612.41;;;20.83;26.62
63097;BME280;49185;42.320;23.198;2023-04-23T12:50:46;94620.13;;;20.59;31.04
63097;BME280;49185;42.320;23.198;2023-04-23T12:53:12;94623.84;;;19.60;30.87
63097;BME280;49185;42.320;23.198;2023-04-23T12:55:37;94626.41;;;19.43;30.10
63097;BME280;49185;42.320;23.198;2023-04-23T12:58:03;94617.53;;;21.02;27.35